createdAt,value
2023-01-13T00:02:02.323Z,22.35
2023-01-13T00:05:25.879Z,19.67
2023-01-13T00:08:52.018Z,21.90
2023-01-13T00:12:14.021Z,29.80
2023-01-13T00:15:36.128Z,29.20
2023-01-13T00:18:58.116Z,29.08
2023-01-13T00:22:20.062Z,29.92
2023-01-13T00:25:41.997Z,22.23
2023-01-13T00:29:04.275Z,19.77
2023-01-13T00:32:26.613Z,21.65
2023-01-13T00:35:58.888Z,21.42
2023-01-13T00:39:20.845Z,21.75
2023-01-13T00:43:01.463Z,19.45
2023-01-13T00:46:23.585Z,19.23
2023-01-13T00:49:45.554Z,21.52
2023-01-13T00:53:07.486Z,22.95
2023-01-13T00:56:39.746Z,16.90
2023-01-13T01:00:02.885Z,21.67
2023-01-13T01:03:24.833Z,18.48
2023-01-13T01:06:46.950Z,20.48
2023-01-13T01:10:09.519Z,18.27
2023-01-13T01:13:31.745Z,16.00
2023-01-13T01:16:54.694Z,22.65
2023-01-13T01:20:17.090Z,13.88
2023-01-13T01:23:40.598Z,20.33
2023-01-13T01:27:02.569Z,20.48
2023-01-13T01:30:24.535Z,21.02
2023-01-13T01:33:47.690Z,26.80
2023-01-13T01:37:09.716Z,25.00
2023-01-13T01:40:31.693Z,19.88
2023-01-13T01:43:59.428Z,16.70
2023-01-13T01:47:23.155Z,16.65
2023-01-13T01:50:45.373Z,24.20
2023-01-13T01:54:09.916Z,21.48
2023-01-13T01:57:37.172Z,22.35
2023-01-13T02:00:59.877Z,21.58
2023-01-13T02:04:28.044Z,19.85
2023-01-13T02:07:53.860Z,23.40
2023-01-13T02:11:55.006Z,18.80
2023-01-13T02:15:23.806Z,19.38
2023-01-13T02:19:10.119Z,19.35
2023-01-13T02:23:01.894Z,20.17
2023-01-13T02:26:57.935Z,26.88
2023-01-13T02:31:11.685Z,26.85
2023-01-13T02:34:42.042Z,24.55
2023-01-13T02:38:05.460Z,24.08
2023-01-13T02:42:05.948Z,26.67
2023-01-13T02:45:48.552Z,22.38
2023-01-13T02:49:14.784Z,29.77
2023-01-13T02:52:48.926Z,29.27
2023-01-13T02:56:14.977Z,26.02
2023-01-13T02:59:39.771Z,26.17
2023-01-13T03:03:02.456Z,26.85
2023-01-13T03:06:42.250Z,30.10
2023-01-13T03:10:27.682Z,27.38
2023-01-13T03:14:26.560Z,27.77
2023-01-13T03:18:13.063Z,29.20
2023-01-13T03:22:07.108Z,28.80
2023-01-13T03:25:43.435Z,29.73
2023-01-13T03:29:28.921Z,29.90
2023-01-13T03:32:55.802Z,25.50
2023-01-13T03:36:22.631Z,28.45
2023-01-13T03:39:52.493Z,30.23
2023-01-13T03:47:24.020Z,32.80
2023-01-13T03:50:52.228Z,27.15
2023-01-13T03:54:18.003Z,35.33
2023-01-13T03:58:10.531Z,25.75
2023-01-13T04:01:57.431Z,37.30
2023-01-13T04:05:19.956Z,28.60
2023-01-13T04:08:50.078Z,33.83
2023-01-13T04:12:18.879Z,30.05
2023-01-13T04:15:44.823Z,28.02
2023-01-13T04:19:06.885Z,27.20
2023-01-13T04:22:28.837Z,36.35
2023-01-13T04:25:51.511Z,31.73
2023-01-13T04:29:15.531Z,30.65
2023-01-13T04:32:37.720Z,32.45
2023-01-13T04:35:59.895Z,32.53
2023-01-13T04:39:21.831Z,32.08
2023-01-13T04:42:45.181Z,30.83
2023-01-13T04:46:07.298Z,26.52
2023-01-13T04:49:29.321Z,25.55
2023-01-13T04:52:52.463Z,33.63
2023-01-13T04:56:14.405Z,30.52
2023-01-13T04:59:36.340Z,30.52
2023-01-13T05:02:59.328Z,29.88
2023-01-13T05:06:21.320Z,33.10
2023-01-13T05:09:43.354Z,34.97
2023-01-13T05:13:23.749Z,28.20
2023-01-13T05:20:28.555Z,31.73
2023-01-13T05:24:08.948Z,32.10
2023-01-13T05:30:53.579Z,22.95
2023-01-13T05:34:15.658Z,30.48
2023-01-13T05:37:37.859Z,35.85
2023-01-13T05:41:19.157Z,33.72
2023-01-13T05:44:41.372Z,34.53
2023-01-13T05:48:03.431Z,32.72
2023-01-13T05:51:26.476Z,29.83
2023-01-13T05:54:48.489Z,27.58
2023-01-13T05:58:12.479Z,36.50
2023-01-13T06:01:34.474Z,30.95
2023-01-13T06:04:56.504Z,32.08
2023-01-13T06:08:19.181Z,29.38
2023-01-13T06:11:41.279Z,22.92
2023-01-13T06:15:03.406Z,27.67
2023-01-13T06:18:25.461Z,32.75
2023-01-13T06:21:48.678Z,29.38
2023-01-13T06:25:44.659Z,33.03
2023-01-13T06:29:08.339Z,24.13
2023-01-13T06:32:35.459Z,25.65
2023-01-13T06:36:01.403Z,30.98
2023-01-13T06:39:27.558Z,34.45
2023-01-13T06:43:09.178Z,31.17
2023-01-13T06:46:31.163Z,23.55
2023-01-13T06:49:53.423Z,33.00
2023-01-13T06:53:15.531Z,22.48
2023-01-13T06:56:37.732Z,48.13
2023-01-13T06:59:59.689Z,26.52
2023-01-13T07:03:21.786Z,30.35
2023-01-13T07:06:43.785Z,28.70
2023-01-13T07:10:09.726Z,25.63
2023-01-13T07:13:50.074Z,24.45
2023-01-13T07:17:12.133Z,24.17
2023-01-13T07:20:34.082Z,28.98
2023-01-13T07:23:56.616Z,28.60
2023-01-13T07:27:18.529Z,29.80
2023-01-13T07:30:40.485Z,25.08
2023-01-13T07:34:04.759Z,29.58
2023-01-13T07:37:26.698Z,33.28
2023-01-13T07:40:48.949Z,29.45
2023-01-13T07:44:11.067Z,29.90
2023-01-13T07:47:33.839Z,30.13
2023-01-13T07:50:56.081Z,31.90
2023-01-13T07:54:19.344Z,34.97
2023-01-13T07:57:41.434Z,43.28
2023-01-13T08:01:12.334Z,45.75
2023-01-13T08:04:34.447Z,35.50
2023-01-13T08:07:56.467Z,32.63
2023-01-13T08:11:18.875Z,31.65
2023-01-13T08:14:40.903Z,37.50
2023-01-13T08:18:03.021Z,36.10
2023-01-13T08:21:25.067Z,38.55
2023-01-13T08:24:47.063Z,29.95
2023-01-13T08:28:09.239Z,32.88
2023-01-13T08:31:31.238Z,29.42
2023-01-13T08:34:53.189Z,32.03
2023-01-13T08:38:15.194Z,33.45
2023-01-13T08:41:55.234Z,32.58
2023-01-13T08:45:17.229Z,33.75
2023-01-13T08:48:39.244Z,39.55
2023-01-13T08:52:01.413Z,35.53
2023-01-13T08:55:23.588Z,31.05
2023-01-13T08:58:45.733Z,26.48
2023-01-13T09:02:16.196Z,34.10
2023-01-13T09:05:38.255Z,25.15
2023-01-13T09:09:02.493Z,27.15
2023-01-13T09:12:43.395Z,27.73
2023-01-13T09:16:05.756Z,29.55
2023-01-13T09:19:28.798Z,27.83
2023-01-13T09:22:50.714Z,29.77
2023-01-13T09:26:16.354Z,35.22
2023-01-13T09:29:38.578Z,28.25
2023-01-13T09:33:19.466Z,26.15
2023-01-13T09:36:41.542Z,26.58
2023-01-13T09:40:11.265Z,21.58
2023-01-13T09:43:56.545Z,26.98
2023-01-13T09:47:27.557Z,23.25
2023-01-13T09:51:09.750Z,24.95
2023-01-13T09:54:41.307Z,28.50
2023-01-13T09:58:13.411Z,20.80
2023-01-13T10:01:41.184Z,25.23
2023-01-13T10:05:06.536Z,27.23
2023-01-13T10:08:45.806Z,31.33
2023-01-13T10:12:34.917Z,22.17
2023-01-13T10:16:26.324Z,21.98
2023-01-13T10:20:09.678Z,21.90
2023-01-13T10:23:34.730Z,25.15
2023-01-13T10:27:12.453Z,16.55
2023-01-13T10:30:38.888Z,21.27
2023-01-13T10:34:04.135Z,17.02
2023-01-13T10:37:27.969Z,17.92
2023-01-13T10:40:53.192Z,20.17
2023-01-13T10:44:17.130Z,20.17
2023-01-13T10:47:39.581Z,18.45
2023-01-13T10:51:26.081Z,23.45
2023-01-13T10:54:52.675Z,24.25
2023-01-13T10:58:21.186Z,23.80
2023-01-13T11:02:25.453Z,28.27
2023-01-13T11:05:57.412Z,21.70
2023-01-13T11:09:20.812Z,22.50
2023-01-13T11:13:15.056Z,18.20
2023-01-13T11:16:52.674Z,19.80
2023-01-13T11:20:19.600Z,18.17
2023-01-13T11:23:48.984Z,20.55
2023-01-13T11:27:31.227Z,15.38
2023-01-13T11:31:02.268Z,16.85
2023-01-13T11:34:27.200Z,17.80
2023-01-13T11:37:57.951Z,13.35
2023-01-13T11:41:45.471Z,13.38
2023-01-13T11:45:16.929Z,12.63
2023-01-13T11:48:42.360Z,10.60
2023-01-13T11:52:19.211Z,13.57
2023-01-13T11:55:57.899Z,17.35
2023-01-13T11:59:48.160Z,15.68
2023-01-13T12:03:31.443Z,17.80
2023-01-13T12:07:14.743Z,13.05
2023-01-13T12:10:58.147Z,16.52
2023-01-13T12:14:39.297Z,11.10
2023-01-13T12:18:26.073Z,12.05
2023-01-13T12:22:12.785Z,10.85
2023-01-13T12:25:42.075Z,10.35
2023-01-13T12:29:06.344Z,13.77
2023-01-13T12:32:37.713Z,12.50
2023-01-13T12:36:22.532Z,13.02
2023-01-13T12:40:04.470Z,21.27
2023-01-13T12:43:45.230Z,26.33
2023-01-13T12:51:02.414Z,13.90
2023-01-13T12:54:45.097Z,15.35
2023-01-13T12:58:07.047Z,17.50
2023-01-13T13:01:37.014Z,14.60
2023-01-13T13:05:24.838Z,14.95
2023-01-13T13:09:16.288Z,13.07
2023-01-13T13:12:59.609Z,14.68
2023-01-13T13:16:27.589Z,13.23
2023-01-13T13:19:49.888Z,18.13
2023-01-13T13:23:28.249Z,12.50
2023-01-13T13:26:50.897Z,13.80
2023-01-13T13:30:30.865Z,18.80
2023-01-13T13:34:04.768Z,15.87
2023-01-13T13:38:00.309Z,17.10
2023-01-13T13:41:44.244Z,15.38
2023-01-13T13:45:45.271Z,14.32
2023-01-13T13:49:07.258Z,16.43
2023-01-13T13:52:39.920Z,20.45
2023-01-13T13:56:04.734Z,23.90
2023-01-13T13:59:33.636Z,15.55
2023-01-13T14:03:26.884Z,18.75
2023-01-13T14:07:01.890Z,14.80
2023-01-13T14:10:29.542Z,15.75
2023-01-13T14:14:05.594Z,13.00
2023-01-13T14:17:29.995Z,12.52
2023-01-13T14:21:12.891Z,15.40
2023-01-13T14:24:47.603Z,13.77
2023-01-13T14:28:28.373Z,14.35
2023-01-13T14:35:18.042Z,12.18
2023-01-13T14:38:40.772Z,13.15
2023-01-13T14:42:02.972Z,12.85
2023-01-13T14:45:25.355Z,7.78
2023-01-13T14:48:48.130Z,12.82
2023-01-13T14:52:10.074Z,11.10
2023-01-13T14:55:34.044Z,12.80
2023-01-13T14:58:56.493Z,14.43
2023-01-13T15:02:31.015Z,13.52
2023-01-13T15:05:54.006Z,12.70
2023-01-13T15:09:25.105Z,14.07
2023-01-13T15:12:51.816Z,18.23
2023-01-13T15:16:23.382Z,19.17
2023-01-13T15:19:45.492Z,21.15
2023-01-13T15:23:07.934Z,22.00
2023-01-13T15:26:30.235Z,25.08
2023-01-13T15:29:52.203Z,27.15
2023-01-13T15:33:15.343Z,23.60
2023-01-13T15:36:37.974Z,22.08
2023-01-13T15:40:00.077Z,25.35
2023-01-13T15:43:41.998Z,20.52
2023-01-13T15:47:07.823Z,23.25
2023-01-13T15:50:29.767Z,18.20
2023-01-13T15:53:51.885Z,25.95
2023-01-13T15:57:27.881Z,27.63
2023-01-13T16:00:49.846Z,26.67
2023-01-13T16:04:12.008Z,24.42
2023-01-13T16:07:34.021Z,24.75
2023-01-13T16:10:55.953Z,21.95
2023-01-13T16:14:17.902Z,28.17
2023-01-13T16:17:40.353Z,24.42
2023-01-13T16:21:02.389Z,28.60
2023-01-13T16:24:24.465Z,29.25
2023-01-13T16:27:46.796Z,28.63
2023-01-13T16:31:23.236Z,28.85
2023-01-13T16:34:45.241Z,30.17
2023-01-13T16:38:08.146Z,30.05
2023-01-13T16:41:30.148Z,29.25
2023-01-13T16:44:52.993Z,28.00
2023-01-13T16:48:20.473Z,43.95
2023-01-13T16:51:42.563Z,30.65
2023-01-13T16:55:04.777Z,33.65
2023-01-13T16:58:26.745Z,33.55
2023-01-13T17:01:48.869Z,30.92
2023-01-13T17:05:14.120Z,30.55
2023-01-13T17:08:36.162Z,29.65
2023-01-13T17:11:58.657Z,40.08
2023-01-13T17:15:20.874Z,48.33
2023-01-13T17:18:42.952Z,36.30
2023-01-13T17:22:04.920Z,31.95
2023-01-13T17:25:26.890Z,65.70
2023-01-13T17:28:48.915Z,51.75
2023-01-13T17:32:19.502Z,39.78
2023-01-13T17:35:41.589Z,37.58
2023-01-13T17:39:04.021Z,34.58
2023-01-13T17:42:29.124Z,37.67
2023-01-13T17:45:52.259Z,42.40
2023-01-13T17:49:16.375Z,40.08
2023-01-13T17:52:38.347Z,41.17
2023-01-13T17:56:00.514Z,41.08
2023-01-13T17:59:24.323Z,41.13
2023-01-13T18:02:46.328Z,37.90
2023-01-13T18:06:20.794Z,37.28
2023-01-13T18:09:42.935Z,42.25
2023-01-13T18:13:05.335Z,37.80
2023-01-13T18:16:29.712Z,46.47
2023-01-13T18:20:18.539Z,44.17
2023-01-13T18:24:15.844Z,32.30
2023-01-13T18:27:41.747Z,38.03
2023-01-13T18:31:03.832Z,36.20
2023-01-13T18:34:26.042Z,42.40
2023-01-13T18:37:48.089Z,53.60
2023-01-13T18:41:30.038Z,43.75
2023-01-13T18:44:52.653Z,48.80
2023-01-13T18:48:14.664Z,66.03
2023-01-13T18:51:37.443Z,64.40
2023-01-13T18:54:59.488Z,67.10
2023-01-13T18:58:21.744Z,64.45
2023-01-13T19:01:44.257Z,60.30
2023-01-13T19:05:06.705Z,53.47
2023-01-13T19:08:28.868Z,56.38
2023-01-13T19:11:52.319Z,48.38
2023-01-13T19:15:14.521Z,43.88
2023-01-13T19:18:36.778Z,44.08
2023-01-13T19:21:58.860Z,50.95
2023-01-13T19:25:21.118Z,51.22
2023-01-13T19:28:44.106Z,59.45
2023-01-13T19:32:06.224Z,54.35
2023-01-13T19:35:28.220Z,46.28
2023-01-13T19:38:50.218Z,83.53
2023-01-13T19:42:31.269Z,59.50
2023-01-13T19:45:53.272Z,49.55
2023-01-13T19:49:15.288Z,41.60
2023-01-13T19:52:37.272Z,40.72
2023-01-13T19:55:59.528Z,43.53
2023-01-13T19:59:28.871Z,49.35
2023-01-13T20:02:53.280Z,38.92
2023-01-13T20:06:15.371Z,42.22
2023-01-13T20:09:37.414Z,40.05
2023-01-13T20:12:59.440Z,42.40
2023-01-13T20:16:21.477Z,42.50
2023-01-13T20:19:43.747Z,40.33
2023-01-13T20:23:05.706Z,35.47
2023-01-13T20:26:27.685Z,34.35
2023-01-13T20:29:50.038Z,37.92
2023-01-13T20:33:12.022Z,42.10
2023-01-13T20:36:37.434Z,33.50
2023-01-13T20:40:01.812Z,36.50
2023-01-13T20:43:23.811Z,48.70
2023-01-13T20:46:45.942Z,71.32
2023-01-13T20:50:08.800Z,61.42
2023-01-13T20:53:30.750Z,53.13
2023-01-13T20:56:53.527Z,66.80
2023-01-13T21:00:15.929Z,37.97
2023-01-13T21:03:37.992Z,31.65
2023-01-13T21:07:00.106Z,37.80
2023-01-13T21:10:22.138Z,57.25
2023-01-13T21:14:02.905Z,49.53
2023-01-13T21:17:43.520Z,47.35
2023-01-13T21:21:11.718Z,42.35
2023-01-13T21:24:33.785Z,48.75
2023-01-13T21:28:07.565Z,37.17
2023-01-13T21:31:29.722Z,37.90
2023-01-13T21:34:51.867Z,41.22
2023-01-13T21:38:13.994Z,36.95
2023-01-13T21:41:54.476Z,27.17
2023-01-13T21:45:34.995Z,18.42
2023-01-13T21:48:57.016Z,22.05
2023-01-13T21:52:18.960Z,17.90
2023-01-13T21:55:41.657Z,23.27
2023-01-13T21:59:03.755Z,17.52
2023-01-13T22:02:28.945Z,16.77
2023-01-13T22:05:58.315Z,13.90
2023-01-13T22:09:20.333Z,19.05
2023-01-13T22:12:43.542Z,13.73
2023-01-13T22:16:06.055Z,17.63
2023-01-13T22:19:28.123Z,14.57
2023-01-13T22:22:50.207Z,14.10
2023-01-13T22:26:12.399Z,20.42
2023-01-13T22:29:35.447Z,17.10
2023-01-13T22:32:59.424Z,13.75
2023-01-13T22:36:23.939Z,16.10
2023-01-13T22:39:45.953Z,19.77
2023-01-13T22:43:07.926Z,31.95
2023-01-13T22:46:29.914Z,22.05
2023-01-13T22:49:51.873Z,22.45
2023-01-13T22:53:13.918Z,26.33
2023-01-13T22:56:36.407Z,20.42
2023-01-13T22:59:58.406Z,19.45
2023-01-13T23:03:20.870Z,17.70
2023-01-13T23:06:42.931Z,23.42
2023-01-13T23:10:05.256Z,17.45
2023-01-13T23:13:27.295Z,23.85
2023-01-13T23:16:49.432Z,19.23
2023-01-13T23:20:11.777Z,21.00
2023-01-13T23:23:34.512Z,14.93
2023-01-13T23:26:56.490Z,13.50
2023-01-13T23:30:18.970Z,15.32
2023-01-13T23:33:41.465Z,11.75
2023-01-13T23:37:03.994Z,12.68
2023-01-13T23:40:25.947Z,10.02
2023-01-13T23:43:59.607Z,8.02
2023-01-13T23:47:21.547Z,15.05
2023-01-13T23:50:43.570Z,13.65
2023-01-13T23:54:05.670Z,16.50
2023-01-13T23:57:27.622Z,18.65
